createdAt,value
2024-02-13T00:01:45.635Z,99.90
2024-02-13T00:04:12.590Z,99.90
2024-02-13T00:06:39.632Z,99.90
2024-02-13T00:09:06.587Z,99.90
2024-02-13T00:11:35.235Z,99.90
2024-02-13T00:14:02.285Z,99.90
2024-02-13T00:16:29.866Z,99.90
2024-02-13T00:18:56.763Z,99.90
2024-02-13T00:21:23.981Z,99.90
2024-02-13T00:23:51.464Z,99.90
2024-02-13T00:26:18.740Z,99.90
2024-02-13T00:28:50.045Z,99.90
2024-02-13T00:31:17.549Z,99.90
2024-02-13T00:33:45.425Z,99.90
2024-02-13T00:36:14.621Z,99.90
2024-02-13T00:38:42.670Z,99.90
2024-02-13T00:41:09.769Z,99.90
2024-02-13T00:43:38.287Z,99.90
2024-02-13T00:46:06.640Z,99.90
2024-02-13T00:48:33.705Z,99.90
2024-02-13T00:51:01.099Z,99.90
2024-02-13T00:53:28.248Z,99.90
2024-02-13T00:55:55.209Z,99.90
2024-02-13T00:58:22.436Z,99.90
2024-02-13T01:00:49.796Z,99.90
2024-02-13T01:03:18.396Z,99.90
2024-02-13T01:05:45.588Z,99.90
2024-02-13T01:08:12.878Z,99.90
2024-02-13T01:10:39.974Z,99.90
2024-02-13T01:13:07.281Z,99.90
2024-02-13T01:15:34.969Z,99.90
2024-02-13T01:18:02.039Z,99.90
2024-02-13T01:20:30.560Z,99.90
2024-02-13T01:22:57.836Z,99.90
2024-02-13T01:25:24.934Z,99.90
2024-02-13T01:27:51.800Z,99.90
2024-02-13T01:30:19.138Z,99.90
2024-02-13T01:32:46.393Z,99.90
2024-02-13T01:35:13.445Z,99.90
2024-02-13T01:37:42.055Z,99.90
2024-02-13T01:40:10.618Z,99.90
2024-02-13T01:42:37.581Z,99.90
2024-02-13T01:45:06.780Z,99.90
2024-02-13T01:47:34.041Z,99.90
2024-02-13T01:50:01.412Z,99.90
2024-02-13T01:52:28.651Z,99.90
2024-02-13T01:54:57.277Z,99.90
2024-02-13T01:57:24.574Z,99.90
2024-02-13T01:59:51.551Z,99.90
2024-02-13T02:02:18.926Z,99.90
2024-02-13T02:04:47.976Z,99.90
2024-02-13T02:07:16.072Z,99.90
2024-02-13T02:09:43.418Z,99.90
2024-02-13T02:12:12.122Z,99.90
2024-02-13T02:14:39.443Z,99.90
2024-02-13T02:17:09.875Z,99.90
2024-02-13T02:19:37.378Z,99.90
2024-02-13T02:22:06.412Z,99.90
2024-02-13T02:24:33.763Z,99.90
2024-02-13T02:27:02.376Z,99.90
2024-02-13T02:29:29.723Z,99.90
2024-02-13T02:31:57.442Z,99.90
2024-02-13T02:34:24.658Z,99.90
2024-02-13T02:36:51.704Z,99.90
2024-02-13T02:39:19.847Z,99.90
2024-02-13T02:41:47.544Z,99.90
2024-02-13T02:44:15.886Z,99.90
2024-02-13T02:46:43.418Z,99.90
2024-02-13T02:49:10.897Z,99.90
2024-02-13T02:51:38.119Z,99.90
2024-02-13T02:54:05.724Z,99.90
2024-02-13T02:56:33.513Z,99.90
2024-02-13T02:59:01.064Z,99.90
2024-02-13T03:01:29.608Z,99.90
2024-02-13T03:03:56.650Z,99.90
2024-02-13T03:06:23.699Z,99.90
2024-02-13T03:08:51.685Z,99.90
2024-02-13T03:11:18.792Z,99.90
2024-02-13T03:13:45.998Z,99.90
2024-02-13T03:16:13.221Z,99.90
2024-02-13T03:18:41.851Z,99.90
2024-02-13T03:21:09.231Z,99.90
2024-02-13T03:23:36.578Z,99.90
2024-02-13T03:26:03.690Z,99.90
2024-02-13T03:28:31.019Z,99.90
2024-02-13T03:30:58.457Z,99.90
2024-02-13T03:33:25.854Z,99.90
2024-02-13T03:35:54.671Z,99.90
2024-02-13T03:38:21.646Z,99.90
2024-02-13T03:40:49.000Z,99.90
2024-02-13T03:43:16.288Z,99.90
2024-02-13T03:45:43.218Z,99.90
2024-02-13T03:48:10.288Z,99.90
2024-02-13T03:50:38.508Z,99.90
2024-02-13T03:53:07.065Z,99.90
2024-02-13T03:55:34.621Z,99.90
2024-02-13T03:58:01.687Z,99.90
2024-02-13T04:00:29.616Z,99.90
2024-02-13T04:02:56.853Z,99.90
2024-02-13T04:05:24.050Z,99.90
2024-02-13T04:07:51.328Z,99.90
2024-02-13T04:10:19.940Z,99.90
2024-02-13T04:12:47.232Z,99.90
2024-02-13T04:15:14.830Z,99.90
2024-02-13T04:17:42.265Z,99.90
2024-02-13T04:20:10.559Z,99.90
2024-02-13T04:22:37.836Z,99.90
2024-02-13T04:25:05.937Z,99.90
2024-02-13T04:27:35.142Z,99.90
2024-02-13T04:30:02.342Z,99.90
2024-02-13T04:32:30.613Z,99.90
2024-02-13T04:34:57.926Z,99.90
2024-02-13T04:37:25.203Z,99.90
2024-02-13T04:39:52.745Z,99.90
2024-02-13T04:42:31.578Z,99.90
2024-02-13T04:45:02.634Z,99.90
2024-02-13T04:47:30.103Z,99.90
2024-02-13T04:49:57.703Z,99.90
2024-02-13T04:52:24.935Z,99.90
2024-02-13T04:54:52.216Z,99.90
2024-02-13T04:57:19.773Z,99.90
2024-02-13T04:59:47.993Z,99.90
2024-02-13T05:02:16.908Z,99.90
2024-02-13T05:04:44.100Z,99.90
2024-02-13T05:07:11.239Z,99.90
2024-02-13T05:09:38.252Z,99.90
2024-02-13T05:12:05.924Z,99.90
2024-02-13T05:14:32.986Z,99.90
2024-02-13T05:16:59.912Z,99.90
2024-02-13T05:19:28.639Z,99.90
2024-02-13T05:21:55.962Z,99.90
2024-02-13T05:24:22.884Z,99.90
2024-02-13T05:26:52.037Z,99.90
2024-02-13T05:29:19.336Z,99.90
2024-02-13T05:31:46.621Z,99.90
2024-02-13T05:34:13.861Z,99.90
2024-02-13T05:36:42.774Z,99.90
2024-02-13T05:39:09.990Z,99.90
2024-02-13T05:41:37.286Z,99.90
2024-02-13T05:44:04.993Z,99.90
2024-02-13T05:46:32.076Z,99.90
2024-02-13T05:48:59.318Z,99.90
2024-02-13T05:51:26.987Z,99.90
2024-02-13T05:53:56.450Z,99.90
2024-02-13T05:56:27.952Z,99.90
2024-02-13T05:58:56.058Z,99.90
2024-02-13T06:01:23.643Z,99.90
2024-02-13T06:03:50.936Z,99.90
2024-02-13T06:06:18.035Z,99.90
2024-02-13T06:08:45.274Z,99.90
2024-02-13T06:11:14.022Z,99.90
2024-02-13T06:13:41.388Z,99.90
2024-02-13T06:16:08.650Z,99.90
2024-02-13T06:18:37.650Z,99.90
2024-02-13T06:21:05.549Z,99.90
2024-02-13T06:23:32.929Z,99.90
2024-02-13T06:26:00.275Z,99.90
2024-02-13T06:28:28.998Z,99.90
2024-02-13T06:30:56.837Z,99.90
2024-02-13T06:33:24.219Z,99.90
2024-02-13T06:35:51.701Z,99.90
2024-02-13T06:38:18.975Z,99.90
2024-02-13T06:40:46.286Z,99.90
2024-02-13T06:43:13.732Z,99.90
2024-02-13T06:45:42.298Z,99.90
2024-02-13T06:48:09.613Z,99.90
2024-02-13T06:50:36.897Z,99.90
2024-02-13T06:53:04.721Z,99.90
2024-02-13T06:55:32.055Z,99.90
2024-02-13T06:57:59.097Z,99.90
2024-02-13T07:00:26.075Z,99.90
2024-02-13T07:02:55.508Z,99.90
2024-02-13T07:05:22.796Z,99.90
2024-02-13T07:07:50.238Z,99.90
2024-02-13T07:10:18.154Z,99.90
2024-02-13T07:12:45.805Z,99.90
2024-02-13T07:15:13.613Z,99.90
2024-02-13T07:17:52.047Z,99.90
2024-02-13T07:20:25.431Z,99.90
2024-02-13T07:22:52.765Z,99.90
2024-02-13T07:25:19.985Z,99.90
2024-02-13T07:27:48.913Z,99.90
2024-02-13T07:30:16.165Z,99.90
2024-02-13T07:32:43.912Z,99.90
2024-02-13T07:35:11.147Z,99.90
2024-02-13T07:37:40.885Z,99.90
2024-02-13T07:40:09.063Z,99.90
2024-02-13T07:42:36.257Z,99.90
2024-02-13T07:45:03.475Z,99.90
2024-02-13T07:47:30.779Z,99.90
2024-02-13T07:50:00.558Z,99.90
2024-02-13T07:52:27.615Z,99.90
2024-02-13T07:54:55.960Z,99.90
2024-02-13T07:57:22.967Z,99.90
2024-02-13T07:59:53.108Z,99.90
2024-02-13T08:02:20.156Z,99.90
2024-02-13T08:04:47.125Z,99.90
2024-02-13T08:07:14.191Z,99.90
2024-02-13T08:09:41.124Z,99.90
2024-02-13T08:12:10.667Z,99.90
2024-02-13T08:14:37.651Z,99.90
2024-02-13T08:17:05.028Z,99.90
2024-02-13T08:19:32.012Z,99.90
2024-02-13T08:21:58.999Z,99.90
2024-02-13T08:24:25.818Z,99.90
2024-02-13T08:26:52.864Z,99.90
2024-02-13T08:29:21.235Z,99.90
2024-02-13T08:31:48.598Z,99.90
2024-02-13T08:34:15.614Z,99.90
2024-02-13T08:36:42.693Z,99.90
2024-02-13T08:39:09.536Z,99.90
2024-02-13T08:41:36.740Z,99.90
2024-02-13T08:44:14.207Z,99.90
2024-02-13T08:46:42.503Z,99.90
2024-02-13T08:49:09.585Z,99.90
2024-02-13T08:51:38.403Z,99.90
2024-02-13T08:54:06.394Z,99.90
2024-02-13T08:56:33.683Z,99.90
2024-02-13T08:59:00.919Z,99.90
2024-02-13T09:01:27.843Z,99.90
2024-02-13T09:03:56.134Z,99.90
2024-02-13T09:06:23.378Z,99.90
2024-02-13T09:08:50.335Z,99.90
2024-02-13T09:11:17.311Z,99.90
2024-02-13T09:13:44.462Z,99.90
2024-02-13T09:16:13.684Z,99.90
2024-02-13T09:18:41.387Z,99.90
2024-02-13T09:21:10.402Z,99.90
2024-02-13T09:23:37.377Z,99.90
2024-02-13T09:26:04.421Z,99.90
2024-02-13T09:28:45.402Z,99.90
2024-02-13T09:31:12.335Z,99.90
2024-02-13T09:33:40.615Z,99.90
2024-02-13T09:36:08.525Z,99.90
2024-02-13T09:38:36.936Z,99.90
2024-02-13T09:41:05.001Z,99.00
2024-02-13T09:43:32.316Z,98.10
2024-02-13T09:45:59.384Z,97.50
2024-02-13T09:48:26.672Z,97.20
2024-02-13T09:50:55.870Z,97.50
2024-02-13T09:53:26.251Z,96.00
2024-02-13T09:55:57.407Z,95.90
2024-02-13T09:58:24.936Z,96.10
2024-02-13T10:00:52.726Z,95.50
2024-02-13T10:03:20.011Z,94.80
2024-02-13T10:05:47.370Z,93.80
2024-02-13T10:08:14.525Z,93.70
2024-02-13T10:10:41.607Z,92.30
2024-02-13T10:13:09.968Z,91.00
2024-02-13T10:15:37.986Z,91.70
2024-02-13T10:18:07.976Z,90.90
2024-02-13T10:20:35.215Z,90.40
2024-02-13T10:23:02.254Z,89.10
2024-02-13T10:25:29.177Z,89.90
2024-02-13T10:27:56.118Z,88.70
2024-02-13T10:30:25.280Z,89.90
2024-02-13T10:32:52.567Z,90.00
2024-02-13T10:35:20.868Z,90.40
2024-02-13T10:37:48.789Z,90.40
2024-02-13T10:40:19.776Z,90.90
2024-02-13T10:42:46.797Z,91.40
2024-02-13T10:45:15.534Z,91.80
2024-02-13T10:47:49.937Z,91.90
2024-02-13T10:50:17.202Z,90.90
2024-02-13T10:52:44.668Z,91.40
2024-02-13T10:55:12.187Z,91.00
2024-02-13T10:57:39.354Z,91.30
2024-02-13T11:00:07.808Z,90.90
2024-02-13T11:02:36.030Z,91.10
2024-02-13T11:05:05.326Z,90.90
2024-02-13T11:07:32.833Z,91.00
2024-02-13T11:09:59.946Z,85.60
2024-02-13T11:12:26.803Z,85.70
2024-02-13T11:14:53.929Z,87.10
2024-02-13T11:17:20.844Z,86.30
2024-02-13T11:19:49.018Z,87.30
2024-02-13T11:22:33.205Z,89.20
2024-02-13T11:25:04.349Z,83.90
2024-02-13T11:27:32.662Z,83.90
2024-02-13T11:30:01.333Z,82.50
2024-02-13T11:32:34.864Z,81.50
2024-02-13T11:35:02.090Z,81.40
2024-02-13T11:37:30.450Z,80.30
2024-02-13T11:39:58.789Z,81.70
2024-02-13T11:42:31.961Z,79.30
2024-02-13T11:44:59.006Z,78.80
2024-02-13T11:47:26.241Z,78.90
2024-02-13T11:49:53.864Z,80.90
2024-02-13T11:52:21.422Z,80.90
2024-02-13T11:54:50.566Z,81.60
2024-02-13T11:57:18.972Z,79.90
2024-02-13T11:59:56.200Z,80.50
2024-02-13T12:02:23.306Z,81.00
2024-02-13T12:04:50.365Z,80.00
2024-02-13T12:07:17.319Z,79.00
2024-02-13T12:09:45.090Z,79.40
2024-02-13T12:12:15.218Z,80.10
2024-02-13T12:14:42.344Z,81.20
2024-02-13T12:17:12.012Z,81.40
2024-02-13T12:19:40.419Z,80.60
2024-02-13T12:22:08.325Z,80.90
2024-02-13T12:24:35.476Z,76.60
2024-02-13T12:27:02.548Z,76.00
2024-02-13T12:29:31.013Z,75.80
2024-02-13T12:31:58.277Z,75.00
2024-02-13T12:34:25.311Z,72.90
2024-02-13T12:36:57.327Z,72.20
2024-02-13T12:39:24.231Z,72.90
2024-02-13T12:41:51.119Z,72.50
2024-02-13T12:44:18.986Z,71.70
2024-02-13T12:46:47.229Z,70.70
2024-02-13T12:49:14.475Z,68.90
2024-02-13T12:51:41.532Z,67.90
2024-02-13T12:54:08.717Z,69.10
2024-02-13T12:56:36.057Z,69.10
2024-02-13T12:59:03.146Z,68.70
2024-02-13T13:01:30.733Z,69.10
2024-02-13T13:03:59.084Z,70.40
2024-02-13T13:06:26.041Z,69.10
2024-02-13T13:08:57.223Z,70.00
2024-02-13T13:11:25.398Z,69.70
2024-02-13T13:13:52.275Z,69.50
2024-02-13T13:16:19.192Z,69.10
2024-02-13T13:18:46.311Z,69.20
2024-02-13T13:21:14.833Z,68.20
2024-02-13T13:23:41.777Z,67.40
2024-02-13T13:26:08.912Z,66.60
2024-02-13T13:28:35.804Z,65.80
2024-02-13T13:31:02.653Z,65.50
2024-02-13T13:33:30.972Z,64.50
2024-02-13T13:35:58.283Z,64.20
2024-02-13T13:38:26.757Z,65.70
2024-02-13T13:40:53.719Z,66.40
2024-02-13T13:43:20.632Z,67.20
2024-02-13T13:45:53.271Z,67.70
2024-02-13T13:48:20.760Z,66.90
2024-02-13T13:50:48.471Z,67.60
2024-02-13T13:53:16.614Z,64.00
2024-02-13T13:55:45.440Z,59.70
2024-02-13T13:58:13.107Z,54.70
2024-02-13T14:00:40.157Z,52.20
2024-02-13T14:03:08.270Z,50.40
2024-02-13T14:05:35.411Z,49.80
2024-02-13T14:08:02.781Z,51.00
2024-02-13T14:10:29.955Z,52.20
2024-02-13T14:12:58.668Z,51.50
2024-02-13T14:15:25.852Z,51.70
2024-02-13T14:17:53.206Z,50.30
2024-02-13T14:20:21.098Z,49.40
2024-02-13T14:22:48.628Z,48.90
2024-02-13T14:25:15.792Z,49.50
2024-02-13T14:27:43.554Z,50.90
2024-02-13T14:30:14.685Z,52.00
2024-02-13T14:32:42.091Z,52.00
2024-02-13T14:35:09.520Z,51.00
2024-02-13T14:37:36.542Z,49.60
2024-02-13T14:40:04.034Z,46.40
2024-02-13T14:42:31.536Z,45.50
2024-02-13T14:44:58.721Z,45.00
2024-02-13T14:47:27.819Z,46.20
2024-02-13T14:49:55.396Z,45.90
2024-02-13T14:52:23.382Z,44.40
2024-02-13T14:54:50.695Z,45.30
2024-02-13T14:57:17.858Z,45.80
2024-02-13T14:59:45.264Z,46.70
2024-02-13T15:02:13.219Z,45.10
2024-02-13T15:04:42.373Z,44.90
2024-02-13T15:07:09.532Z,44.70
2024-02-13T15:09:37.386Z,44.50
2024-02-13T15:12:06.161Z,44.40
2024-02-13T15:14:33.476Z,44.40
2024-02-13T15:17:01.048Z,43.60
2024-02-13T15:19:28.282Z,42.60
2024-02-13T15:21:56.861Z,43.70
2024-02-13T15:24:23.839Z,44.40
2024-02-13T15:26:51.671Z,43.90
2024-02-13T15:29:19.666Z,43.90
2024-02-13T15:31:47.118Z,44.80
2024-02-13T15:34:14.727Z,45.40
2024-02-13T15:36:42.452Z,46.00
2024-02-13T15:39:11.376Z,45.70
2024-02-13T15:41:40.086Z,44.90
2024-02-13T15:44:07.061Z,44.00
2024-02-13T15:46:33.979Z,45.00
2024-02-13T15:49:01.101Z,45.20
2024-02-13T15:51:28.861Z,46.30
2024-02-13T15:53:55.925Z,48.20
2024-02-13T15:56:24.557Z,50.30
2024-02-13T15:58:51.494Z,52.20
2024-02-13T16:01:18.801Z,53.70
2024-02-13T16:03:46.103Z,54.50
2024-02-13T16:06:13.203Z,54.70
2024-02-13T16:08:40.556Z,54.90
2024-02-13T16:11:07.886Z,55.40
2024-02-13T16:13:36.689Z,55.40
2024-02-13T16:16:04.479Z,56.10
2024-02-13T16:18:32.021Z,56.10
2024-02-13T16:21:18.280Z,56.00
2024-02-13T16:23:45.848Z,55.60
2024-02-13T16:26:13.712Z,56.40
2024-02-13T16:28:42.417Z,57.30
2024-02-13T16:31:09.625Z,58.60
2024-02-13T16:33:37.358Z,59.30
2024-02-13T16:36:05.902Z,61.10
2024-02-13T16:38:32.937Z,62.90
2024-02-13T16:41:00.340Z,63.40
2024-02-13T16:43:29.125Z,64.50
2024-02-13T16:45:58.036Z,65.20
2024-02-13T16:48:25.425Z,66.60
2024-02-13T16:50:54.303Z,67.40
2024-02-13T16:53:21.500Z,67.70
2024-02-13T16:55:48.962Z,68.00
2024-02-13T16:58:15.930Z,68.90
2024-02-13T17:00:43.186Z,69.70
2024-02-13T17:03:11.816Z,69.60
2024-02-13T17:05:39.027Z,70.20
2024-02-13T17:08:07.849Z,70.50
2024-02-13T17:10:35.206Z,71.60
2024-02-13T17:13:02.323Z,71.90
2024-02-13T17:15:29.287Z,71.90
2024-02-13T17:17:56.437Z,72.80
2024-02-13T17:20:25.136Z,72.80
2024-02-13T17:22:52.750Z,72.80
2024-02-13T17:25:19.994Z,73.20
2024-02-13T17:27:47.586Z,73.60
2024-02-13T17:30:15.113Z,74.40
2024-02-13T17:32:44.043Z,74.70
2024-02-13T17:35:11.554Z,74.90
2024-02-13T17:37:40.599Z,76.20
2024-02-13T17:40:08.463Z,76.10
2024-02-13T17:42:35.663Z,76.80
2024-02-13T17:45:02.932Z,76.70
2024-02-13T17:47:30.043Z,77.30
2024-02-13T17:49:57.224Z,78.00
2024-02-13T17:52:24.507Z,79.00
2024-02-13T17:54:52.922Z,79.10
2024-02-13T17:57:19.894Z,79.60
2024-02-13T17:59:47.525Z,80.50
2024-02-13T18:02:14.611Z,81.00
2024-02-13T18:04:41.990Z,81.70
2024-02-13T18:07:13.679Z,82.10
2024-02-13T18:09:41.130Z,84.40
2024-02-13T18:12:10.139Z,83.70
2024-02-13T18:14:37.365Z,83.10
2024-02-13T18:17:04.774Z,83.30
2024-02-13T18:19:32.091Z,84.00
2024-02-13T18:21:59.402Z,84.90
2024-02-13T18:24:26.508Z,84.90
2024-02-13T18:26:54.013Z,85.60
2024-02-13T18:29:22.900Z,86.00
2024-02-13T18:31:49.982Z,86.40
2024-02-13T18:34:17.089Z,86.80
2024-02-13T18:36:45.031Z,86.80
2024-02-13T18:39:12.323Z,87.20
2024-02-13T18:41:39.380Z,88.80
2024-02-13T18:44:06.634Z,89.10
2024-02-13T18:46:36.349Z,88.50
2024-02-13T18:49:03.746Z,88.50
2024-02-13T18:51:30.882Z,90.00
2024-02-13T18:53:58.123Z,90.10
2024-02-13T18:56:25.467Z,89.70
2024-02-13T18:58:52.385Z,89.80
2024-02-13T19:01:19.685Z,90.10
2024-02-13T19:03:48.980Z,90.20
2024-02-13T19:06:16.301Z,90.60
2024-02-13T19:08:43.503Z,90.70
2024-02-13T19:11:10.831Z,90.80
2024-02-13T19:13:38.302Z,90.80
2024-02-13T19:16:06.335Z,91.00
2024-02-13T19:18:33.646Z,91.20
2024-02-13T19:21:02.459Z,91.50
2024-02-13T19:23:29.517Z,92.00
2024-02-13T19:25:56.721Z,92.60
2024-02-13T19:28:25.757Z,92.40
2024-02-13T19:30:53.901Z,92.50
2024-02-13T19:33:21.681Z,92.50
2024-02-13T19:35:48.981Z,92.80
2024-02-13T19:38:17.802Z,93.30
2024-02-13T19:40:45.074Z,93.10
2024-02-13T19:43:12.176Z,93.80
2024-02-13T19:45:39.202Z,94.00
2024-02-13T19:48:07.310Z,93.90
2024-02-13T19:50:34.515Z,93.80
2024-02-13T19:53:01.495Z,93.90
2024-02-13T19:55:29.809Z,94.20
2024-02-13T19:57:59.520Z,94.40
2024-02-13T20:00:26.464Z,94.50
2024-02-13T20:02:53.383Z,94.70
2024-02-13T20:05:20.514Z,94.90
2024-02-13T20:07:47.569Z,94.90
2024-02-13T20:10:14.641Z,95.20
2024-02-13T20:12:42.989Z,95.40
2024-02-13T20:15:10.389Z,95.60
2024-02-13T20:17:37.394Z,96.00
2024-02-13T20:20:06.187Z,96.10
2024-02-13T20:22:33.024Z,96.20
2024-02-13T20:24:59.945Z,96.60
2024-02-13T20:27:26.916Z,96.70
2024-02-13T20:29:55.189Z,96.80
2024-02-13T20:32:22.276Z,97.20
2024-02-13T20:34:49.202Z,97.60
2024-02-13T20:37:16.189Z,97.80
2024-02-13T20:39:43.086Z,98.10
2024-02-13T20:42:09.981Z,98.40
2024-02-13T20:44:36.948Z,98.50
2024-02-13T20:47:05.571Z,98.80
2024-02-13T20:49:32.564Z,99.20
2024-02-13T20:51:59.546Z,99.20
2024-02-13T20:54:26.456Z,99.40
2024-02-13T20:56:53.340Z,99.70
2024-02-13T20:59:20.204Z,99.70
2024-02-13T21:01:47.135Z,99.90
2024-02-13T21:04:15.528Z,99.90
2024-02-13T21:06:44.891Z,99.90
2024-02-13T21:09:12.391Z,99.90
2024-02-13T21:11:39.500Z,99.90
2024-02-13T21:14:06.617Z,99.90
2024-02-13T21:16:33.460Z,99.90
2024-02-13T21:19:00.627Z,99.90
2024-02-13T21:21:29.052Z,99.90
2024-02-13T21:23:56.029Z,99.90
2024-02-13T21:26:23.025Z,99.90
2024-02-13T21:28:49.953Z,99.90
2024-02-13T21:31:16.788Z,99.90
2024-02-13T21:33:43.748Z,99.90
2024-02-13T21:36:10.958Z,99.90
2024-02-13T21:38:39.309Z,99.90
2024-02-13T21:41:06.320Z,99.90
2024-02-13T21:43:33.294Z,99.90
2024-02-13T21:46:00.307Z,99.90
2024-02-13T21:48:27.334Z,99.90
2024-02-13T21:50:54.416Z,99.90
2024-02-13T21:53:21.362Z,99.90
2024-02-13T21:55:50.284Z,99.90
2024-02-13T21:58:17.300Z,99.90
2024-02-13T22:00:44.226Z,99.90
2024-02-13T22:03:11.478Z,99.90
2024-02-13T22:05:38.528Z,99.90
2024-02-13T22:08:06.385Z,99.90
2024-02-13T22:10:33.435Z,99.90
2024-02-13T22:13:01.948Z,99.90
2024-02-13T22:15:28.830Z,99.90
2024-02-13T22:17:55.684Z,99.90
2024-02-13T22:20:22.752Z,99.90
2024-02-13T22:22:49.677Z,99.90
2024-02-13T22:25:16.646Z,99.90
2024-02-13T22:27:43.486Z,99.90
2024-02-13T22:30:12.682Z,99.90
2024-02-13T22:32:39.887Z,99.90
2024-02-13T22:35:07.636Z,99.90
2024-02-13T22:37:34.469Z,99.90
2024-02-13T22:40:02.380Z,99.90
2024-02-13T22:42:29.279Z,99.90
2024-02-13T22:44:56.189Z,99.90
2024-02-13T22:47:24.617Z,99.90
2024-02-13T22:49:51.555Z,99.90
2024-02-13T22:52:18.570Z,99.90
2024-02-13T22:54:45.422Z,99.90
2024-02-13T22:57:12.377Z,99.90
2024-02-13T22:59:39.305Z,99.90
2024-02-13T23:02:06.279Z,99.90
2024-02-13T23:04:34.508Z,99.90
2024-02-13T23:07:01.422Z,99.90
2024-02-13T23:09:28.370Z,99.90
2024-02-13T23:11:55.292Z,99.90
2024-02-13T23:14:22.360Z,99.90
2024-02-13T23:16:49.310Z,99.90
2024-02-13T23:19:16.370Z,99.90
2024-02-13T23:21:44.849Z,99.90
2024-02-13T23:24:12.033Z,99.90
2024-02-13T23:26:39.345Z,99.90
2024-02-13T23:29:06.268Z,99.90
2024-02-13T23:31:33.119Z,99.90
2024-02-13T23:34:00.217Z,99.90
2024-02-13T23:36:27.348Z,99.90
2024-02-13T23:38:55.581Z,99.90
2024-02-13T23:41:22.595Z,99.90
2024-02-13T23:43:49.485Z,99.90
2024-02-13T23:46:16.334Z,99.90
2024-02-13T23:48:43.450Z,99.90
2024-02-13T23:51:10.572Z,99.90
2024-02-13T23:53:37.579Z,99.90
2024-02-13T23:56:06.627Z,99.90
2024-02-13T23:58:33.615Z,99.90
